createdAt,value
2023-05-16T00:00:53.329Z,101948.88
2023-05-16T00:03:21.053Z,101948.16
2023-05-16T00:05:48.067Z,101955.97
2023-05-16T00:08:14.596Z,101949.72
2023-05-16T00:10:41.105Z,101959.53
2023-05-16T00:13:07.630Z,101959.47
2023-05-16T00:15:34.752Z,101958.50
2023-05-16T00:18:01.340Z,101967.41
2023-05-16T00:20:29.206Z,101962.09
2023-05-16T00:22:55.902Z,101958.28
2023-05-16T00:25:23.186Z,101964.97
2023-05-16T00:27:49.673Z,101962.06
2023-05-16T00:30:16.232Z,101958.25
2023-05-16T00:32:43.270Z,101958.03
2023-05-16T00:35:11.532Z,101952.03
2023-05-16T00:37:38.964Z,101949.78
2023-05-16T00:40:06.431Z,101957.72
2023-05-16T00:42:33.070Z,101963.09
2023-05-16T00:45:00.350Z,101958.00
2023-05-16T00:47:26.867Z,101965.34
2023-05-16T00:49:53.877Z,101960.22
2023-05-16T00:52:20.536Z,101963.56
2023-05-16T00:54:47.229Z,101961.81
2023-05-16T00:57:13.770Z,101961.28
2023-05-16T00:59:42.475Z,101975.81
2023-05-16T01:02:08.942Z,101961.66
2023-05-16T01:04:35.806Z,101964.50
2023-05-16T01:07:02.670Z,101963.63
2023-05-16T01:09:29.730Z,101965.13
2023-05-16T01:12:01.831Z,101965.72
2023-05-16T01:14:49.499Z,101966.66
2023-05-16T01:17:34.342Z,101970.06
2023-05-16T01:20:06.592Z,101968.56
2023-05-16T01:22:52.685Z,101972.19
2023-05-16T01:25:56.649Z,101963.97
2023-05-16T01:28:23.339Z,101969.53
2023-05-16T01:30:51.537Z,101968.25
2023-05-16T01:33:18.019Z,101982.44
2023-05-16T01:36:00.157Z,101972.19
2023-05-16T01:38:38.702Z,101974.25
2023-05-16T01:41:27.916Z,101967.91
2023-05-16T01:44:01.989Z,101970.91
2023-05-16T01:46:34.294Z,101977.75
2023-05-16T01:49:23.685Z,101972.09
2023-05-16T01:52:02.069Z,101974.16
2023-05-16T01:54:32.069Z,101967.56
2023-05-16T01:57:01.110Z,101975.28
2023-05-16T01:59:28.351Z,101975.09
2023-05-16T02:01:57.243Z,101982.41
2023-05-16T02:04:24.375Z,101985.72
2023-05-16T02:06:51.975Z,101991.03
2023-05-16T02:09:18.694Z,101980.53
2023-05-16T02:11:46.943Z,101990.19
2023-05-16T02:14:13.517Z,101995.41
2023-05-16T02:16:40.002Z,101989.59
2023-05-16T02:19:06.523Z,101998.94
2023-05-16T02:21:32.984Z,101998.75
2023-05-16T02:23:59.520Z,101995.34
2023-05-16T02:26:26.070Z,101998.44
2023-05-16T02:28:52.778Z,102003.84
2023-05-16T02:31:29.919Z,102004.84
2023-05-16T02:33:58.301Z,102010.66
2023-05-16T02:36:25.592Z,102001.63
2023-05-16T02:38:52.070Z,102010.06
2023-05-16T02:41:18.870Z,102010.06
2023-05-16T02:43:47.012Z,102003.44
2023-05-16T02:46:22.928Z,102003.88
2023-05-16T02:48:50.602Z,102013.06
2023-05-16T02:51:17.156Z,102001.66
2023-05-16T02:53:43.824Z,102006.16
2023-05-16T02:56:10.991Z,102021.25
2023-05-16T02:58:37.516Z,102008.66
2023-05-16T03:01:04.071Z,102014.16
2023-05-16T03:03:30.758Z,102019.97
2023-05-16T03:05:57.268Z,102022.41
2023-05-16T03:08:23.694Z,102022.72
2023-05-16T03:10:50.136Z,102032.72
2023-05-16T03:13:16.650Z,102022.47
2023-05-16T03:15:43.222Z,102033.22
2023-05-16T03:18:09.697Z,102027.59
2023-05-16T03:20:36.206Z,102034.69
2023-05-16T03:23:02.720Z,102031.88
2023-05-16T03:25:29.321Z,102031.47
2023-05-16T03:27:56.107Z,102028.91
2023-05-16T03:30:23.082Z,102035.28
2023-05-16T03:32:49.593Z,102034.56
2023-05-16T03:35:16.120Z,102036.38
2023-05-16T03:37:42.657Z,102036.16
2023-05-16T03:40:09.502Z,102039.88
2023-05-16T03:42:35.948Z,102037.34
2023-05-16T03:45:02.750Z,102042.06
2023-05-16T03:47:31.360Z,102040.69
2023-05-16T03:49:58.068Z,102044.88
2023-05-16T03:52:24.898Z,102039.25
2023-05-16T03:54:51.407Z,102047.69
2023-05-16T03:57:17.829Z,102060.50
2023-05-16T03:59:44.312Z,102048.78
2023-05-16T04:02:10.973Z,102058.47
2023-05-16T04:04:37.455Z,102059.41
2023-05-16T04:07:04.199Z,102052.78
2023-05-16T04:09:30.850Z,102055.28
2023-05-16T04:11:57.617Z,102065.19
2023-05-16T04:14:24.271Z,102071.13
2023-05-16T04:16:51.632Z,102065.59
2023-05-16T04:19:18.204Z,102068.50
2023-05-16T04:21:44.772Z,102066.00
2023-05-16T04:24:11.338Z,102075.00
2023-05-16T04:26:37.759Z,102076.63
2023-05-16T04:29:04.453Z,102079.63
2023-05-16T04:31:31.191Z,102078.81
2023-05-16T04:33:58.081Z,102080.34
2023-05-16T04:36:24.517Z,102081.75
2023-05-16T04:38:51.017Z,102087.66
2023-05-16T04:41:17.511Z,102100.31
2023-05-16T04:43:44.424Z,102094.91
2023-05-16T04:46:10.909Z,102097.97
2023-05-16T04:48:37.445Z,102094.19
2023-05-16T04:51:04.183Z,102094.09
2023-05-16T04:53:30.823Z,102095.59
2023-05-16T04:55:57.398Z,102092.38
2023-05-16T04:58:24.280Z,102095.69
2023-05-16T05:00:55.696Z,102100.50
2023-05-16T05:03:22.335Z,102105.50
2023-05-16T05:05:48.902Z,102097.31
2023-05-16T05:08:15.393Z,102100.41
2023-05-16T05:10:41.941Z,102107.84
2023-05-16T05:13:08.485Z,102106.59
2023-05-16T05:15:34.907Z,102112.81
2023-05-16T05:18:01.623Z,102108.91
2023-05-16T05:20:28.497Z,102111.63
2023-05-16T05:22:54.970Z,102107.19
2023-05-16T05:25:21.531Z,102110.09
2023-05-16T05:27:48.114Z,102111.63
2023-05-16T05:30:14.627Z,102106.47
2023-05-16T05:32:41.334Z,102116.59
2023-05-16T05:35:07.954Z,102121.19
2023-05-16T05:37:34.515Z,102116.81
2023-05-16T05:40:01.007Z,102119.28
2023-05-16T05:42:27.490Z,102120.41
2023-05-16T05:44:54.058Z,102125.69
2023-05-16T05:47:20.678Z,102120.97
2023-05-16T05:49:47.511Z,102121.53
2023-05-16T05:52:15.135Z,102135.75
2023-05-16T05:54:41.669Z,102131.53
2023-05-16T05:57:08.087Z,102131.38
2023-05-16T05:59:34.568Z,102135.53
2023-05-16T06:02:01.201Z,102132.56
2023-05-16T06:04:27.793Z,102137.44
2023-05-16T06:06:54.363Z,102140.44
2023-05-16T06:09:21.837Z,102136.56
2023-05-16T06:11:48.401Z,102139.84
2023-05-16T06:14:16.144Z,102135.41
2023-05-16T06:16:43.126Z,102147.78
2023-05-16T06:19:10.350Z,102146.97
2023-05-16T06:21:37.430Z,102152.09
2023-05-16T06:24:04.037Z,102149.22
2023-05-16T06:26:30.596Z,102154.81
2023-05-16T06:28:57.070Z,102158.56
2023-05-16T06:31:23.627Z,102153.94
2023-05-16T06:33:50.123Z,102151.38
2023-05-16T06:36:16.600Z,102149.38
2023-05-16T06:38:43.141Z,102148.31
2023-05-16T06:41:09.650Z,102164.50
2023-05-16T06:43:36.494Z,102162.47
2023-05-16T06:46:03.909Z,102160.06
2023-05-16T06:48:30.746Z,102164.69
2023-05-16T06:50:57.702Z,102167.75
2023-05-16T06:53:24.305Z,102161.84
2023-05-16T06:55:51.289Z,102162.84
2023-05-16T06:58:17.826Z,102171.56
2023-05-16T07:00:44.380Z,102157.22
2023-05-16T07:03:11.405Z,102168.34
2023-05-16T07:05:37.981Z,102162.41
2023-05-16T07:08:07.628Z,102164.66
2023-05-16T07:10:34.630Z,102160.66
2023-05-16T07:13:01.712Z,102169.91
2023-05-16T07:15:28.477Z,102170.84
2023-05-16T07:17:55.213Z,102166.13
2023-05-16T07:20:22.075Z,102168.03
2023-05-16T07:22:48.778Z,102164.34
2023-05-16T07:25:16.130Z,102168.19
2023-05-16T07:27:44.810Z,102169.34
2023-05-16T07:30:13.132Z,102172.94
2023-05-16T07:32:40.046Z,102167.56
2023-05-16T07:35:07.148Z,102171.69
2023-05-16T07:37:33.959Z,102172.00
2023-05-16T07:40:00.581Z,102175.19
2023-05-16T07:42:27.375Z,102174.22
2023-05-16T07:44:53.904Z,102174.84
2023-05-16T07:47:20.527Z,102180.63
2023-05-16T07:49:47.102Z,102172.94
2023-05-16T07:52:13.634Z,102170.53
2023-05-16T07:54:40.198Z,102186.19
2023-05-16T07:57:07.426Z,102185.72
2023-05-16T07:59:34.122Z,102177.72
2023-05-16T08:02:00.707Z,102168.44
2023-05-16T08:04:27.285Z,102174.91
2023-05-16T08:06:53.772Z,102171.53
2023-05-16T08:09:20.753Z,102167.66
2023-05-16T08:11:47.297Z,102161.41
2023-05-16T08:14:13.846Z,102162.22
2023-05-16T08:16:40.477Z,102160.00
2023-05-16T08:19:07.460Z,102159.53
2023-05-16T08:21:34.148Z,102170.91
2023-05-16T08:24:00.674Z,102184.47
2023-05-16T08:26:27.261Z,102186.81
2023-05-16T08:28:53.815Z,102193.41
2023-05-16T08:31:21.206Z,102196.94
2023-05-16T08:33:47.776Z,102191.84
2023-05-16T08:36:15.879Z,102194.75
2023-05-16T08:38:42.435Z,102186.19
2023-05-16T08:41:08.958Z,102181.84
2023-05-16T08:43:36.687Z,102168.69
2023-05-16T08:46:03.331Z,102169.31
2023-05-16T08:48:33.068Z,102167.72
2023-05-16T08:51:02.635Z,102167.56
2023-05-16T08:53:45.122Z,102176.00
2023-05-16T08:56:13.482Z,102174.00
2023-05-16T08:58:40.583Z,102180.50
2023-05-16T09:01:09.332Z,102179.94
2023-05-16T09:03:40.584Z,102182.13
2023-05-16T09:06:08.445Z,102192.13
2023-05-16T09:08:35.144Z,102186.00
2023-05-16T09:11:02.550Z,102176.75
2023-05-16T09:13:29.101Z,102172.81
2023-05-16T09:16:19.432Z,102180.75
2023-05-16T09:18:58.527Z,102185.31
2023-05-16T09:21:34.167Z,102183.34
2023-05-16T09:24:08.567Z,102187.53
2023-05-16T09:26:39.188Z,102183.72
2023-05-16T09:29:12.564Z,102186.81
2023-05-16T09:31:39.881Z,102175.56
2023-05-16T09:34:12.194Z,102182.13
2023-05-16T09:36:39.449Z,102183.59
2023-05-16T09:39:07.656Z,102179.53
2023-05-16T09:41:35.822Z,102179.69
2023-05-16T09:44:06.565Z,102186.50
2023-05-16T09:46:35.137Z,102171.59
2023-05-16T09:49:02.644Z,102193.28
2023-05-16T09:51:29.195Z,102192.44
2023-05-16T09:53:58.959Z,102195.66
2023-05-16T09:56:25.483Z,102202.19
2023-05-16T09:58:52.522Z,102195.66
2023-05-16T10:01:19.588Z,102190.63
2023-05-16T10:03:46.206Z,102202.38
2023-05-16T10:06:13.899Z,102185.59
2023-05-16T10:08:43.035Z,102186.97
2023-05-16T10:11:10.890Z,102189.19
2023-05-16T10:13:39.057Z,102184.50
2023-05-16T10:16:12.419Z,102183.75
2023-05-16T10:18:40.571Z,102185.81
2023-05-16T10:21:16.280Z,102191.59
2023-05-16T10:23:44.231Z,102182.03
2023-05-16T10:26:14.123Z,102187.16
2023-05-16T10:28:41.619Z,102185.69
2023-05-16T10:31:09.911Z,102190.91
2023-05-16T10:33:37.043Z,102188.78
2023-05-16T10:36:05.527Z,102196.97
2023-05-16T10:38:32.578Z,102193.19
2023-05-16T10:40:59.164Z,102183.84
2023-05-16T10:43:31.013Z,102189.09
2023-05-16T10:46:02.456Z,102191.16
2023-05-16T10:48:37.777Z,102189.34
2023-05-16T10:51:24.212Z,102191.16
2023-05-16T10:53:55.398Z,102184.56
2023-05-16T10:56:26.773Z,102194.94
2023-05-16T10:58:54.512Z,102189.34
2023-05-16T11:01:26.932Z,102191.06
2023-05-16T11:03:57.200Z,102185.25
2023-05-16T11:06:34.728Z,102193.78
2023-05-16T11:09:10.544Z,102187.03
2023-05-16T11:11:52.422Z,102197.66
2023-05-16T11:14:26.649Z,102194.13
2023-05-16T11:17:13.781Z,102185.56
2023-05-16T11:19:52.790Z,102192.09
2023-05-16T11:22:19.339Z,102179.00
2023-05-16T11:24:53.497Z,102188.91
2023-05-16T11:27:28.232Z,102182.97
2023-05-16T11:30:00.341Z,102193.31
2023-05-16T11:32:30.254Z,102198.34
2023-05-16T11:34:58.234Z,102195.81
2023-05-16T11:37:24.864Z,102196.09
2023-05-16T11:39:52.093Z,102200.44
2023-05-16T11:42:18.743Z,102208.81
2023-05-16T11:44:45.815Z,102202.81
2023-05-16T11:47:13.391Z,102206.19
2023-05-16T11:49:41.424Z,102205.84
2023-05-16T11:52:09.626Z,102204.03
2023-05-16T11:54:36.493Z,102204.31
2023-05-16T11:57:03.320Z,102206.63
2023-05-16T11:59:30.656Z,102207.97
2023-05-16T12:01:57.234Z,102206.72
2023-05-16T12:04:24.022Z,102211.72
2023-05-16T12:07:00.630Z,102210.47
2023-05-16T12:09:27.459Z,102210.00
2023-05-16T12:11:54.019Z,102217.25
2023-05-16T12:14:21.194Z,102221.69
2023-05-16T12:16:49.430Z,102218.53
2023-05-16T12:19:16.478Z,102220.94
2023-05-16T12:21:43.181Z,102218.13
2023-05-16T12:24:12.139Z,102222.09
2023-05-16T12:26:41.365Z,102223.31
2023-05-16T12:29:08.120Z,102220.66
2023-05-16T12:31:39.918Z,102221.88
2023-05-16T12:34:15.986Z,102215.97
2023-05-16T12:36:43.425Z,102219.06
2023-05-16T12:39:12.933Z,102223.56
2023-05-16T12:41:43.373Z,102229.22
2023-05-16T12:44:17.133Z,102224.00
2023-05-16T12:46:46.147Z,102233.69
2023-05-16T12:49:13.741Z,102218.56
2023-05-16T12:51:41.029Z,102219.94
2023-05-16T12:54:12.195Z,102222.94
2023-05-16T12:56:42.103Z,102224.75
2023-05-16T12:59:08.758Z,102215.06
2023-05-16T13:01:36.173Z,102218.81
2023-05-16T13:04:03.111Z,102215.03
2023-05-16T13:06:36.999Z,102219.44
2023-05-16T13:09:15.886Z,102225.84
2023-05-16T13:11:42.432Z,102228.53
2023-05-16T13:14:08.995Z,102226.59
2023-05-16T13:16:35.728Z,102227.38
2023-05-16T13:19:02.812Z,102229.66
2023-05-16T13:21:31.733Z,102241.88
2023-05-16T13:23:59.166Z,102232.63
2023-05-16T13:26:26.658Z,102239.88
2023-05-16T13:28:54.947Z,102240.09
2023-05-16T13:31:22.626Z,102237.69
2023-05-16T13:33:49.271Z,102234.84
2023-05-16T13:36:15.861Z,102242.78
2023-05-16T13:38:42.739Z,102229.28
2023-05-16T13:41:09.289Z,102226.19
2023-05-16T13:43:35.784Z,102227.91
2023-05-16T13:46:02.346Z,102227.44
2023-05-16T13:48:28.893Z,102233.25
2023-05-16T13:50:55.969Z,102231.16
2023-05-16T13:53:23.352Z,102233.94
2023-05-16T13:55:49.880Z,102238.25
2023-05-16T13:58:16.438Z,102235.63
2023-05-16T14:00:46.305Z,102239.03
2023-05-16T14:03:13.271Z,102229.34
2023-05-16T14:05:40.106Z,102238.25
2023-05-16T14:08:06.800Z,102223.03
2023-05-16T14:10:33.305Z,102220.41
2023-05-16T14:12:59.891Z,102230.78
2023-05-16T14:15:26.973Z,102227.81
2023-05-16T14:17:53.964Z,102236.59
2023-05-16T14:20:20.729Z,102237.22
2023-05-16T14:22:47.690Z,102239.69
2023-05-16T14:25:14.407Z,102231.13
2023-05-16T14:27:41.458Z,102243.31
2023-05-16T14:30:09.599Z,102234.94
2023-05-16T14:32:36.371Z,102241.00
2023-05-16T14:35:05.269Z,102237.03
2023-05-16T14:37:32.051Z,102239.16
2023-05-16T14:39:59.697Z,102241.34
2023-05-16T14:42:26.516Z,102241.97
2023-05-16T14:44:53.281Z,102245.91
2023-05-16T14:47:19.885Z,102230.78
2023-05-16T14:49:46.482Z,102239.78
2023-05-16T14:52:13.072Z,102244.13
2023-05-16T14:54:39.623Z,102242.38
2023-05-16T14:57:06.892Z,102237.84
2023-05-16T14:59:33.450Z,102243.97
2023-05-16T15:02:00.073Z,102237.34
2023-05-16T15:04:29.577Z,102246.53
2023-05-16T15:06:56.216Z,102242.53
2023-05-16T15:09:22.837Z,102239.94
2023-05-16T15:11:49.327Z,102244.06
2023-05-16T15:14:16.075Z,102241.66
2023-05-16T15:16:42.959Z,102241.19
2023-05-16T15:19:09.620Z,102239.72
2023-05-16T15:21:36.344Z,102242.81
2023-05-16T15:24:02.931Z,102239.59
2023-05-16T15:26:29.558Z,102240.59
2023-05-16T15:28:56.177Z,102242.47
2023-05-16T15:31:22.966Z,102246.69
2023-05-16T15:33:49.595Z,102248.72
2023-05-16T15:36:16.237Z,102250.59
2023-05-16T15:38:45.584Z,102252.19
2023-05-16T15:41:19.786Z,102255.13
2023-05-16T15:43:53.464Z,102261.16
2023-05-16T15:46:20.148Z,102255.59
2023-05-16T15:48:46.737Z,102256.00
2023-05-16T15:51:13.680Z,102254.25
2023-05-16T15:53:40.311Z,102270.09
2023-05-16T15:56:07.958Z,102258.13
2023-05-16T15:58:34.555Z,102269.81
2023-05-16T16:01:01.128Z,102261.34
2023-05-16T16:03:27.841Z,102267.09
2023-05-16T16:05:54.423Z,102268.22
2023-05-16T16:08:21.157Z,102263.56
2023-05-16T16:10:47.782Z,102272.09
2023-05-16T16:13:14.333Z,102265.78
2023-05-16T16:15:42.245Z,102272.09
2023-05-16T16:18:09.342Z,102267.97
2023-05-16T16:20:35.934Z,102269.16
2023-05-16T16:23:02.573Z,102267.09
2023-05-16T16:25:29.369Z,102275.13
2023-05-16T16:27:56.489Z,102277.84
2023-05-16T16:30:23.150Z,102278.84
2023-05-16T16:32:49.684Z,102277.91
2023-05-16T16:35:16.302Z,102285.16
2023-05-16T16:37:48.734Z,102283.38
2023-05-16T16:40:21.310Z,102280.91
2023-05-16T16:42:47.818Z,102290.22
2023-05-16T16:45:14.401Z,102289.41
2023-05-16T16:47:41.070Z,102297.59
2023-05-16T16:50:08.371Z,102294.03
2023-05-16T16:52:35.433Z,102306.56
2023-05-16T16:55:02.038Z,102305.13
2023-05-16T16:57:28.641Z,102310.09
2023-05-16T16:59:55.266Z,102307.03
2023-05-16T17:02:22.240Z,102308.00
2023-05-16T17:04:48.840Z,102306.69
2023-05-16T17:07:15.355Z,102297.25
2023-05-16T17:09:42.999Z,102302.03
2023-05-16T17:12:18.636Z,102303.16
2023-05-16T17:14:49.890Z,102304.63
2023-05-16T17:17:17.819Z,102303.97
2023-05-16T17:19:47.023Z,102307.50
2023-05-16T17:22:13.961Z,102313.91
2023-05-16T17:24:40.547Z,102317.59
2023-05-16T17:27:07.137Z,102315.19
2023-05-16T17:29:33.702Z,102319.22
2023-05-16T17:32:00.281Z,102319.56
2023-05-16T17:34:27.224Z,102308.16
2023-05-16T17:36:54.075Z,102310.59
2023-05-16T17:39:20.840Z,102307.53
2023-05-16T17:41:47.580Z,102310.88
2023-05-16T17:44:14.132Z,102312.00
2023-05-16T17:46:40.654Z,102312.16
2023-05-16T17:49:08.049Z,102313.75
2023-05-16T17:51:52.239Z,102325.78
2023-05-16T17:54:19.711Z,102320.78
2023-05-16T17:56:47.156Z,102328.97
2023-05-16T17:59:14.351Z,102329.59
2023-05-16T18:01:41.916Z,102330.84
2023-05-16T18:04:08.570Z,102339.22
2023-05-16T18:06:37.675Z,102332.97
2023-05-16T18:09:07.376Z,102343.09
2023-05-16T18:11:35.173Z,102350.47
2023-05-16T18:14:02.365Z,102350.78
2023-05-16T18:16:30.066Z,102353.69
2023-05-16T18:18:57.947Z,102357.53
2023-05-16T18:21:24.768Z,102355.09
2023-05-16T18:23:51.780Z,102356.41
2023-05-16T18:26:19.343Z,102354.19
2023-05-16T18:28:46.069Z,102356.56
2023-05-16T18:31:12.696Z,102353.84
2023-05-16T18:33:39.414Z,102362.50
2023-05-16T18:36:06.369Z,102369.91
2023-05-16T18:38:35.433Z,102359.50
2023-05-16T18:41:02.243Z,102363.66
2023-05-16T18:43:29.108Z,102358.88
2023-05-16T18:45:55.789Z,102359.66
2023-05-16T18:48:22.446Z,102354.25
2023-05-16T18:50:49.112Z,102364.66
2023-05-16T18:53:15.681Z,102365.00
2023-05-16T18:55:42.314Z,102361.47
2023-05-16T18:58:09.005Z,102367.72
2023-05-16T19:00:35.789Z,102373.31
2023-05-16T19:03:02.323Z,102381.94
2023-05-16T19:05:28.937Z,102379.41
2023-05-16T19:07:55.754Z,102381.63
2023-05-16T19:10:22.364Z,102382.59
2023-05-16T19:12:49.264Z,102385.78
2023-05-16T19:15:16.067Z,102380.66
2023-05-16T19:17:43.018Z,102386.56
2023-05-16T19:20:10.854Z,102387.88
2023-05-16T19:22:37.664Z,102398.44
2023-05-16T19:25:05.092Z,102394.41
2023-05-16T19:27:31.962Z,102401.28
2023-05-16T19:29:58.474Z,102408.78
2023-05-16T19:32:25.372Z,102408.59
2023-05-16T19:34:52.275Z,102409.41
2023-05-16T19:37:18.942Z,102413.41
2023-05-16T19:39:45.471Z,102419.59
2023-05-16T19:42:12.010Z,102412.72
2023-05-16T19:44:38.527Z,102423.63
2023-05-16T19:47:05.390Z,102411.44
2023-05-16T19:49:32.075Z,102416.38
2023-05-16T19:51:58.769Z,102414.28
2023-05-16T19:54:25.708Z,102416.94
2023-05-16T19:56:52.238Z,102410.88
2023-05-16T19:59:18.825Z,102423.97
2023-05-16T20:01:45.948Z,102419.81
2023-05-16T20:04:12.731Z,102429.22
2023-05-16T20:06:39.601Z,102426.34
2023-05-16T20:09:06.328Z,102424.44
2023-05-16T20:11:33.123Z,102415.16
2023-05-16T20:14:00.232Z,102424.75
2023-05-16T20:16:27.458Z,102422.63
2023-05-16T20:18:54.305Z,102425.34
2023-05-16T20:21:21.089Z,102421.34
2023-05-16T20:23:47.943Z,102430.91
2023-05-16T20:26:15.203Z,102431.66
2023-05-16T20:28:42.085Z,102432.44
2023-05-16T20:31:08.782Z,102425.69
2023-05-16T20:33:35.621Z,102428.53
2023-05-16T20:36:02.376Z,102431.75
2023-05-16T20:38:28.910Z,102428.53
2023-05-16T20:40:55.783Z,102441.81
2023-05-16T20:43:22.580Z,102449.31
2023-05-16T20:45:49.831Z,102448.03
2023-05-16T20:48:16.387Z,102448.03
2023-05-16T20:50:43.038Z,102448.03
2023-05-16T20:53:09.568Z,102452.34
2023-05-16T20:55:36.062Z,102450.44
2023-05-16T20:58:02.721Z,102454.59
2023-05-16T21:00:29.447Z,102463.16
2023-05-16T21:02:56.181Z,102459.59
2023-05-16T21:05:25.649Z,102458.41
2023-05-16T21:07:52.968Z,102453.59
2023-05-16T21:10:19.521Z,102461.75
2023-05-16T21:12:46.004Z,102465.56
2023-05-16T21:15:12.628Z,102462.53
2023-05-16T21:17:40.878Z,102462.22
2023-05-16T21:20:08.377Z,102464.63
2023-05-16T21:22:36.037Z,102459.63
2023-05-16T21:25:02.984Z,102466.38
2023-05-16T21:27:29.511Z,102461.84
2023-05-16T21:29:56.016Z,102464.06
2023-05-16T21:32:22.516Z,102473.81
2023-05-16T21:34:49.055Z,102470.72
2023-05-16T21:37:16.822Z,102475.34
2023-05-16T21:39:43.337Z,102465.22
2023-05-16T21:42:09.833Z,102469.66
2023-05-16T21:44:36.856Z,102468.06
2023-05-16T21:47:03.804Z,102474.06
2023-05-16T21:49:30.333Z,102486.97
2023-05-16T21:51:56.918Z,102472.41
2023-05-16T21:54:23.404Z,102477.81
2023-05-16T21:56:49.917Z,102477.31
2023-05-16T21:59:16.450Z,102484.28
2023-05-16T22:01:43.049Z,102484.66
2023-05-16T22:04:09.697Z,102487.50
2023-05-16T22:06:36.305Z,102492.72
2023-05-16T22:09:02.833Z,102492.53
2023-05-16T22:11:29.386Z,102493.19
2023-05-16T22:13:56.186Z,102495.22
2023-05-16T22:16:22.726Z,102496.31
2023-05-16T22:18:49.482Z,102483.53
2023-05-16T22:21:16.377Z,102487.28
2023-05-16T22:23:42.950Z,102483.84
2023-05-16T22:26:09.516Z,102485.75
2023-05-16T22:28:36.071Z,102488.28
2023-05-16T22:31:02.633Z,102493.78
2023-05-16T22:33:29.174Z,102491.69
2023-05-16T22:35:56.172Z,102496.31
2023-05-16T22:38:22.681Z,102494.78
2023-05-16T22:40:49.295Z,102501.72
2023-05-16T22:43:15.857Z,102496.41
2023-05-16T22:45:42.401Z,102495.38
2023-05-16T22:48:09.029Z,102497.56
2023-05-16T22:50:35.706Z,102504.19
2023-05-16T22:53:02.198Z,102503.97
2023-05-16T22:55:29.591Z,102512.19
2023-05-16T22:57:58.363Z,102503.88
2023-05-16T23:00:24.944Z,102504.47
2023-05-16T23:02:51.891Z,102507.78
2023-05-16T23:05:18.568Z,102505.66
2023-05-16T23:07:45.070Z,102495.94
2023-05-16T23:10:11.652Z,102508.69
2023-05-16T23:12:38.209Z,102513.22
2023-05-16T23:15:09.825Z,102507.38
2023-05-16T23:17:40.812Z,102501.47
2023-05-16T23:20:07.941Z,102502.47
2023-05-16T23:22:34.499Z,102504.66
2023-05-16T23:25:01.038Z,102501.16
2023-05-16T23:27:27.615Z,102504.16
2023-05-16T23:29:54.170Z,102497.16
2023-05-16T23:32:20.940Z,102501.75
2023-05-16T23:34:47.497Z,102505.63
2023-05-16T23:37:14.575Z,102507.38
2023-05-16T23:39:41.134Z,102512.19
2023-05-16T23:42:07.794Z,102519.63
2023-05-16T23:44:34.949Z,102516.97
2023-05-16T23:47:01.450Z,102514.06
2023-05-16T23:49:27.951Z,102514.25
2023-05-16T23:51:57.954Z,102528.84
2023-05-16T23:54:26.019Z,102523.16
2023-05-16T23:56:52.711Z,102532.28
2023-05-16T23:59:19.308Z,102515.84
